sensor_id;sensor_type;location;lat;lon;timestamp;P1;durP1;ratioP1;P2;durP2;ratioP2
82034;SDS011;71599;49.892;18.914;2023-10-19T00:00:19;67.05;;;39.00;;
82034;SDS011;71599;49.892;18.914;2023-10-19T00:05:41;56.95;;;31.65;;
82034;SDS011;71599;49.892;18.914;2023-10-19T00:10:44;57.88;;;32.70;;
82034;SDS011;71599;49.892;18.914;2023-10-19T00:15:46;63.08;;;33.38;;
82034;SDS011;71599;49.892;18.914;2023-10-19T00:20:47;59.85;;;31.63;;
82034;SDS011;71599;49.892;18.914;2023-10-19T00:25:51;53.15;;;29.10;;
82034;SDS011;71599;49.892;18.914;2023-10-19T00:30:52;59.47;;;29.05;;
82034;SDS011;71599;49.892;18.914;2023-10-19T00:35:53;59.80;;;30.75;;
82034;SDS011;71599;49.892;18.914;2023-10-19T00:40:55;49.75;;;25.27;;
82034;SDS011;71599;49.892;18.914;2023-10-19T00:45:57;52.42;;;28.02;;
82034;SDS011;71599;49.892;18.914;2023-10-19T00:50:58;42.90;;;23.52;;
82034;SDS011;71599;49.892;18.914;2023-10-19T00:56:00;35.13;;;17.65;;
82034;SDS011;71599;49.892;18.914;2023-10-19T01:01:02;37.72;;;21.83;;
82034;SDS011;71599;49.892;18.914;2023-10-19T01:06:04;43.90;;;24.85;;
82034;SDS011;71599;49.892;18.914;2023-10-19T01:11:07;50.92;;;25.50;;
82034;SDS011;71599;49.892;18.914;2023-10-19T01:16:11;43.42;;;24.08;;
82034;SDS011;71599;49.892;18.914;2023-10-19T01:21:12;45.03;;;23.80;;
82034;SDS011;71599;49.892;18.914;2023-10-19T01:26:15;41.65;;;23.48;;
82034;SDS011;71599;49.892;18.914;2023-10-19T01:31:17;40.75;;;23.77;;
82034;SDS011;71599;49.892;18.914;2023-10-19T01:36:18;52.65;;;27.73;;
82034;SDS011;71599;49.892;18.914;2023-10-19T01:41:21;48.90;;;25.00;;
82034;SDS011;71599;49.892;18.914;2023-10-19T01:46:23;58.42;;;28.92;;
82034;SDS011;71599;49.892;18.914;2023-10-19T01:51:24;68.32;;;38.58;;
82034;SDS011;71599;49.892;18.914;2023-10-19T01:56:28;48.10;;;28.25;;
82034;SDS011;71599;49.892;18.914;2023-10-19T02:01:29;50.72;;;28.70;;
82034;SDS011;71599;49.892;18.914;2023-10-19T02:06:32;41.15;;;24.45;;
82034;SDS011;71599;49.892;18.914;2023-10-19T02:11:36;42.83;;;23.08;;
82034;SDS011;71599;49.892;18.914;2023-10-19T02:16:37;46.20;;;24.45;;
82034;SDS011;71599;49.892;18.914;2023-10-19T02:21:38;46.58;;;24.30;;
82034;SDS011;71599;49.892;18.914;2023-10-19T02:26:40;45.97;;;25.48;;
82034;SDS011;71599;49.892;18.914;2023-10-19T02:31:42;44.70;;;24.92;;
82034;SDS011;71599;49.892;18.914;2023-10-19T02:36:44;43.50;;;23.38;;
82034;SDS011;71599;49.892;18.914;2023-10-19T02:41:47;41.05;;;22.48;;
82034;SDS011;71599;49.892;18.914;2023-10-19T02:46:49;39.17;;;20.55;;
82034;SDS011;71599;49.892;18.914;2023-10-19T02:51:51;36.63;;;20.27;;
82034;SDS011;71599;49.892;18.914;2023-10-19T02:56:55;42.47;;;22.60;;
82034;SDS011;71599;49.892;18.914;2023-10-19T03:01:57;50.60;;;26.50;;
82034;SDS011;71599;49.892;18.914;2023-10-19T03:06:59;43.00;;;21.88;;
82034;SDS011;71599;49.892;18.914;2023-10-19T03:12:01;30.65;;;19.48;;
82034;SDS011;71599;49.892;18.914;2023-10-19T03:17:03;32.15;;;17.85;;
82034;SDS011;71599;49.892;18.914;2023-10-19T03:22:04;42.38;;;22.40;;
82034;SDS011;71599;49.892;18.914;2023-10-19T03:27:06;44.90;;;25.33;;
82034;SDS011;71599;49.892;18.914;2023-10-19T03:32:08;52.08;;;27.55;;
82034;SDS011;71599;49.892;18.914;2023-10-19T03:37:09;59.08;;;31.20;;
82034;SDS011;71599;49.892;18.914;2023-10-19T03:42:12;60.42;;;34.55;;
82034;SDS011;71599;49.892;18.914;2023-10-19T03:47:13;62.30;;;34.10;;
82034;SDS011;71599;49.892;18.914;2023-10-19T03:52:14;63.50;;;34.55;;
82034;SDS011;71599;49.892;18.914;2023-10-19T03:57:17;62.85;;;34.53;;
82034;SDS011;71599;49.892;18.914;2023-10-19T04:02:18;66.43;;;37.22;;
82034;SDS011;71599;49.892;18.914;2023-10-19T04:07:20;58.58;;;35.00;;
82034;SDS011;71599;49.892;18.914;2023-10-19T04:12:22;72.45;;;37.15;;
82034;SDS011;71599;49.892;18.914;2023-10-19T04:17:23;61.92;;;35.13;;
82034;SDS011;71599;49.892;18.914;2023-10-19T04:22:24;62.25;;;34.17;;
82034;SDS011;71599;49.892;18.914;2023-10-19T04:27:26;62.88;;;33.78;;
82034;SDS011;71599;49.892;18.914;2023-10-19T04:32:27;59.58;;;32.75;;
82034;SDS011;71599;49.892;18.914;2023-10-19T04:37:28;56.72;;;32.72;;
82034;SDS011;71599;49.892;18.914;2023-10-19T04:42:30;61.45;;;33.95;;
82034;SDS011;71599;49.892;18.914;2023-10-19T04:47:31;64.65;;;36.78;;
82034;SDS011;71599;49.892;18.914;2023-10-19T04:52:33;55.25;;;33.40;;
82034;SDS011;71599;49.892;18.914;2023-10-19T04:57:35;50.42;;;30.77;;
82034;SDS011;71599;49.892;18.914;2023-10-19T05:02:36;46.47;;;28.77;;
82034;SDS011;71599;49.892;18.914;2023-10-19T05:07:37;52.65;;;32.88;;
82034;SDS011;71599;49.892;18.914;2023-10-19T05:12:39;46.90;;;29.00;;
82034;SDS011;71599;49.892;18.914;2023-10-19T05:17:40;51.75;;;32.20;;
82034;SDS011;71599;49.892;18.914;2023-10-19T05:22:41;57.28;;;32.30;;
82034;SDS011;71599;49.892;18.914;2023-10-19T05:27:44;48.72;;;29.58;;
82034;SDS011;71599;49.892;18.914;2023-10-19T05:32:45;52.10;;;31.90;;
82034;SDS011;71599;49.892;18.914;2023-10-19T05:37:46;50.10;;;30.45;;
82034;SDS011;71599;49.892;18.914;2023-10-19T05:42:48;53.28;;;30.27;;
82034;SDS011;71599;49.892;18.914;2023-10-19T05:47:49;50.25;;;30.52;;
82034;SDS011;71599;49.892;18.914;2023-10-19T05:52:50;50.10;;;28.88;;
82034;SDS011;71599;49.892;18.914;2023-10-19T05:57:53;56.67;;;32.47;;
82034;SDS011;71599;49.892;18.914;2023-10-19T06:02:54;52.33;;;30.27;;
82034;SDS011;71599;49.892;18.914;2023-10-19T06:07:55;47.47;;;28.08;;
82034;SDS011;71599;49.892;18.914;2023-10-19T06:12:57;53.58;;;31.42;;
82034;SDS011;71599;49.892;18.914;2023-10-19T06:17:58;54.33;;;30.05;;
82034;SDS011;71599;49.892;18.914;2023-10-19T06:22:59;48.97;;;29.40;;
82034;SDS011;71599;49.892;18.914;2023-10-19T06:28:01;48.08;;;27.98;;
82034;SDS011;71599;49.892;18.914;2023-10-19T06:33:02;48.03;;;28.55;;
82034;SDS011;71599;49.892;18.914;2023-10-19T06:38:04;59.17;;;33.50;;
82034;SDS011;71599;49.892;18.914;2023-10-19T06:43:07;68.65;;;37.13;;
82034;SDS011;71599;49.892;18.914;2023-10-19T06:48:08;51.42;;;30.02;;
82034;SDS011;71599;49.892;18.914;2023-10-19T06:53:09;36.63;;;24.73;;
82034;SDS011;71599;49.892;18.914;2023-10-19T06:58:11;41.30;;;24.02;;
82034;SDS011;71599;49.892;18.914;2023-10-19T07:03:12;43.15;;;24.00;;
82034;SDS011;71599;49.892;18.914;2023-10-19T07:08:13;36.80;;;24.05;;
82034;SDS011;71599;49.892;18.914;2023-10-19T07:13:15;35.05;;;22.23;;
82034;SDS011;71599;49.892;18.914;2023-10-19T07:18:17;38.97;;;21.70;;
82034;SDS011;71599;49.892;18.914;2023-10-19T07:23:18;36.65;;;20.95;;
82034;SDS011;71599;49.892;18.914;2023-10-19T07:33:22;51.58;;;28.52;;
82034;SDS011;71599;49.892;18.914;2023-10-19T07:38:23;37.85;;;22.92;;
82034;SDS011;71599;49.892;18.914;2023-10-19T07:43:26;33.40;;;21.70;;
82034;SDS011;71599;49.892;18.914;2023-10-19T07:48:27;30.35;;;18.17;;
82034;SDS011;71599;49.892;18.914;2023-10-19T07:53:28;28.52;;;18.58;;
82034;SDS011;71599;49.892;18.914;2023-10-19T07:58:30;29.42;;;18.30;;
82034;SDS011;71599;49.892;18.914;2023-10-19T08:03:31;25.02;;;17.17;;
82034;SDS011;71599;49.892;18.914;2023-10-19T08:08:32;24.25;;;15.38;;
82034;SDS011;71599;49.892;18.914;2023-10-19T08:13:34;29.50;;;16.85;;
82034;SDS011;71599;49.892;18.914;2023-10-19T08:18:35;24.98;;;15.80;;
82034;SDS011;71599;49.892;18.914;2023-10-19T08:23:36;28.20;;;18.98;;
82034;SDS011;71599;49.892;18.914;2023-10-19T08:28:39;32.65;;;20.02;;
82034;SDS011;71599;49.892;18.914;2023-10-19T08:33:40;31.55;;;17.95;;
82034;SDS011;71599;49.892;18.914;2023-10-19T08:38:40;27.95;;;17.42;;
82034;SDS011;71599;49.892;18.914;2023-10-19T08:43:43;32.25;;;18.17;;
82034;SDS011;71599;49.892;18.914;2023-10-19T08:48:44;33.65;;;17.98;;
82034;SDS011;71599;49.892;18.914;2023-10-19T08:53:45;37.10;;;18.23;;
82034;SDS011;71599;49.892;18.914;2023-10-19T08:58:48;30.35;;;16.85;;
82034;SDS011;71599;49.892;18.914;2023-10-19T09:03:49;29.20;;;17.80;;
82034;SDS011;71599;49.892;18.914;2023-10-19T09:08:51;28.08;;;17.33;;
82034;SDS011;71599;49.892;18.914;2023-10-19T09:13:53;26.63;;;15.63;;
82034;SDS011;71599;49.892;18.914;2023-10-19T09:18:54;31.35;;;16.30;;
82034;SDS011;71599;49.892;18.914;2023-10-19T09:23:56;31.40;;;18.20;;
82034;SDS011;71599;49.892;18.914;2023-10-19T09:28:59;27.38;;;17.02;;
82034;SDS011;71599;49.892;18.914;2023-10-19T09:34:00;31.73;;;19.35;;
82034;SDS011;71599;49.892;18.914;2023-10-19T09:39:01;32.03;;;19.40;;
82034;SDS011;71599;49.892;18.914;2023-10-19T09:44:04;31.23;;;19.83;;
82034;SDS011;71599;49.892;18.914;2023-10-19T09:49:09;32.42;;;18.98;;
82034;SDS011;71599;49.892;18.914;2023-10-19T09:54:14;27.63;;;18.10;;
82034;SDS011;71599;49.892;18.914;2023-10-19T09:59:23;29.73;;;18.48;;
82034;SDS011;71599;49.892;18.914;2023-10-19T10:04:33;27.75;;;17.98;;
82034;SDS011;71599;49.892;18.914;2023-10-19T10:09:35;33.53;;;20.02;;
82034;SDS011;71599;49.892;18.914;2023-10-19T10:14:38;38.45;;;20.77;;
82034;SDS011;71599;49.892;18.914;2023-10-19T10:19:55;42.20;;;21.52;;
82034;SDS011;71599;49.892;18.914;2023-10-19T10:25:24;37.10;;;21.25;;
82034;SDS011;71599;49.892;18.914;2023-10-19T10:30:27;35.35;;;22.15;;
82034;SDS011;71599;49.892;18.914;2023-10-19T10:40:54;29.00;;;17.17;;
82034;SDS011;71599;49.892;18.914;2023-10-19T10:46:03;32.35;;;16.63;;
82034;SDS011;71599;49.892;18.914;2023-10-19T10:51:08;25.80;;;16.33;;
82034;SDS011;71599;49.892;18.914;2023-10-19T10:56:15;26.20;;;16.45;;
82034;SDS011;71599;49.892;18.914;2023-10-19T11:01:29;29.60;;;16.63;;
82034;SDS011;71599;49.892;18.914;2023-10-19T11:06:30;40.92;;;24.52;;
82034;SDS011;71599;49.892;18.914;2023-10-19T11:11:36;27.50;;;18.73;;
82034;SDS011;71599;49.892;18.914;2023-10-19T11:16:39;24.60;;;17.17;;
82034;SDS011;71599;49.892;18.914;2023-10-19T11:21:51;30.30;;;19.20;;
82034;SDS011;71599;49.892;18.914;2023-10-19T11:26:53;25.00;;;18.17;;
82034;SDS011;71599;49.892;18.914;2023-10-19T11:31:59;26.98;;;18.33;;
82034;SDS011;71599;49.892;18.914;2023-10-19T11:37:00;33.63;;;19.25;;
82034;SDS011;71599;49.892;18.914;2023-10-19T11:42:01;29.10;;;19.75;;
82034;SDS011;71599;49.892;18.914;2023-10-19T11:47:03;31.13;;;18.13;;
82034;SDS011;71599;49.892;18.914;2023-10-19T11:52:05;30.70;;;19.75;;
82034;SDS011;71599;49.892;18.914;2023-10-19T11:57:06;33.28;;;20.55;;
82034;SDS011;71599;49.892;18.914;2023-10-19T12:07:09;37.03;;;24.15;;
82034;SDS011;71599;49.892;18.914;2023-10-19T12:17:12;34.28;;;19.33;;
82034;SDS011;71599;49.892;18.914;2023-10-19T12:22:13;31.90;;;20.13;;
82034;SDS011;71599;49.892;18.914;2023-10-19T12:27:14;33.72;;;21.27;;
82034;SDS011;71599;49.892;18.914;2023-10-19T12:32:16;36.05;;;21.60;;
82034;SDS011;71599;49.892;18.914;2023-10-19T12:37:17;33.17;;;20.83;;
82034;SDS011;71599;49.892;18.914;2023-10-19T12:42:18;36.28;;;20.60;;
82034;SDS011;71599;49.892;18.914;2023-10-19T12:47:21;34.60;;;22.05;;
82034;SDS011;71599;49.892;18.914;2023-10-19T12:52:22;37.55;;;22.27;;
82034;SDS011;71599;49.892;18.914;2023-10-19T12:57:22;39.80;;;22.80;;
82034;SDS011;71599;49.892;18.914;2023-10-19T13:02:25;39.78;;;24.52;;
82034;SDS011;71599;49.892;18.914;2023-10-19T13:07:26;49.88;;;31.02;;
82034;SDS011;71599;49.892;18.914;2023-10-19T13:12:27;70.50;;;33.95;;
82034;SDS011;71599;49.892;18.914;2023-10-19T13:22:32;46.67;;;28.30;;
82034;SDS011;71599;49.892;18.914;2023-10-19T13:27:33;44.88;;;26.20;;
82034;SDS011;71599;49.892;18.914;2023-10-19T13:37:36;45.90;;;28.15;;
82034;SDS011;71599;49.892;18.914;2023-10-19T13:42:37;50.80;;;30.52;;
82034;SDS011;71599;49.892;18.914;2023-10-19T13:52:40;58.33;;;35.88;;
82034;SDS011;71599;49.892;18.914;2023-10-19T14:02:43;52.45;;;31.70;;
82034;SDS011;71599;49.892;18.914;2023-10-19T14:07:44;102.97;;;52.72;;
82034;SDS011;71599;49.892;18.914;2023-10-19T14:12:45;84.32;;;47.45;;
82034;SDS011;71599;49.892;18.914;2023-10-19T14:17:48;55.17;;;34.45;;
82034;SDS011;71599;49.892;18.914;2023-10-19T14:22:50;50.70;;;31.85;;
82034;SDS011;71599;49.892;18.914;2023-10-19T14:27:52;54.47;;;34.50;;
82034;SDS011;71599;49.892;18.914;2023-10-19T14:32:57;52.80;;;33.67;;
82034;SDS011;71599;49.892;18.914;2023-10-19T14:37:58;44.70;;;31.15;;
82034;SDS011;71599;49.892;18.914;2023-10-19T14:48:01;91.75;;;58.88;;
82034;SDS011;71599;49.892;18.914;2023-10-19T14:53:03;72.53;;;48.55;;
82034;SDS011;71599;49.892;18.914;2023-10-19T14:58:04;79.93;;;51.42;;
82034;SDS011;71599;49.892;18.914;2023-10-19T15:03:07;106.15;;;66.47;;
82034;SDS011;71599;49.892;18.914;2023-10-19T15:08:09;109.78;;;64.72;;
82034;SDS011;71599;49.892;18.914;2023-10-19T15:13:10;113.18;;;62.13;;
82034;SDS011;71599;49.892;18.914;2023-10-19T15:23:13;98.78;;;53.35;;
82034;SDS011;71599;49.892;18.914;2023-10-19T15:33:16;137.77;;;72.93;;
82034;SDS011;71599;49.892;18.914;2023-10-19T15:38:17;299.73;;;154.38;;
82034;SDS011;71599;49.892;18.914;2023-10-19T15:48:20;135.48;;;65.75;;
82034;SDS011;71599;49.892;18.914;2023-10-19T15:53:21;164.60;;;80.13;;
82034;SDS011;71599;49.892;18.914;2023-10-19T15:58:22;258.65;;;129.23;;
82034;SDS011;71599;49.892;18.914;2023-10-19T16:03:24;100.97;;;64.05;;
82034;SDS011;71599;49.892;18.914;2023-10-19T16:08:25;102.85;;;66.65;;
82034;SDS011;71599;49.892;18.914;2023-10-19T16:13:26;82.40;;;50.35;;
82034;SDS011;71599;49.892;18.914;2023-10-19T16:23:29;235.02;;;105.78;;
82034;SDS011;71599;49.892;18.914;2023-10-19T16:28:30;219.32;;;104.38;;
82034;SDS011;71599;49.892;18.914;2023-10-19T16:38:33;82.38;;;53.58;;
82034;SDS011;71599;49.892;18.914;2023-10-19T16:48:36;75.18;;;42.88;;
82034;SDS011;71599;49.892;18.914;2023-10-19T16:53:37;80.35;;;45.80;;
82034;SDS011;71599;49.892;18.914;2023-10-19T16:58:38;89.65;;;47.50;;
82034;SDS011;71599;49.892;18.914;2023-10-19T17:03:41;167.02;;;87.07;;
82034;SDS011;71599;49.892;18.914;2023-10-19T17:08:42;93.22;;;50.80;;
82034;SDS011;71599;49.892;18.914;2023-10-19T17:13:43;140.55;;;74.43;;
82034;SDS011;71599;49.892;18.914;2023-10-19T17:23:46;123.60;;;61.83;;
82034;SDS011;71599;49.892;18.914;2023-10-19T17:28:47;111.78;;;56.22;;
82034;SDS011;71599;49.892;18.914;2023-10-19T17:33:50;101.45;;;62.97;;
82034;SDS011;71599;49.892;18.914;2023-10-19T17:38:51;108.97;;;70.25;;
82034;SDS011;71599;49.892;18.914;2023-10-19T17:48:54;71.97;;;43.80;;
82034;SDS011;71599;49.892;18.914;2023-10-19T17:53:55;67.57;;;42.00;;
82034;SDS011;71599;49.892;18.914;2023-10-19T17:58:56;64.82;;;40.78;;
82034;SDS011;71599;49.892;18.914;2023-10-19T18:03:58;76.57;;;43.95;;
82034;SDS011;71599;49.892;18.914;2023-10-19T18:08:59;79.43;;;47.13;;
82034;SDS011;71599;49.892;18.914;2023-10-19T18:14:00;64.18;;;42.38;;
82034;SDS011;71599;49.892;18.914;2023-10-19T18:19:03;67.93;;;40.53;;
82034;SDS011;71599;49.892;18.914;2023-10-19T18:24:04;78.55;;;45.97;;
82034;SDS011;71599;49.892;18.914;2023-10-19T18:29:05;105.68;;;63.33;;
82034;SDS011;71599;49.892;18.914;2023-10-19T18:34:08;135.98;;;73.10;;
82034;SDS011;71599;49.892;18.914;2023-10-19T18:39:09;137.30;;;73.72;;
82034;SDS011;71599;49.892;18.914;2023-10-19T18:44:10;197.73;;;95.38;;
82034;SDS011;71599;49.892;18.914;2023-10-19T18:49:12;134.73;;;69.45;;
82034;SDS011;71599;49.892;18.914;2023-10-19T18:54:14;135.73;;;62.58;;
82034;SDS011;71599;49.892;18.914;2023-10-19T18:59:15;145.73;;;74.15;;
82034;SDS011;71599;49.892;18.914;2023-10-19T19:04:17;84.60;;;44.80;;
82034;SDS011;71599;49.892;18.914;2023-10-19T19:09:18;72.57;;;42.40;;
82034;SDS011;71599;49.892;18.914;2023-10-19T19:14:19;60.60;;;33.00;;
82034;SDS011;71599;49.892;18.914;2023-10-19T19:19:22;60.67;;;34.20;;
82034;SDS011;71599;49.892;18.914;2023-10-19T19:24:23;62.30;;;36.83;;
82034;SDS011;71599;49.892;18.914;2023-10-19T19:29:24;58.78;;;34.65;;
82034;SDS011;71599;49.892;18.914;2023-10-19T19:34:26;53.20;;;31.73;;
82034;SDS011;71599;49.892;18.914;2023-10-19T19:39:28;59.10;;;33.70;;
82034;SDS011;71599;49.892;18.914;2023-10-19T19:44:29;56.55;;;35.63;;
82034;SDS011;71599;49.892;18.914;2023-10-19T19:49:31;53.60;;;31.75;;
82034;SDS011;71599;49.892;18.914;2023-10-19T19:54:32;59.67;;;34.55;;
82034;SDS011;71599;49.892;18.914;2023-10-19T19:59:33;63.25;;;35.08;;
82034;SDS011;71599;49.892;18.914;2023-10-19T20:04:36;55.97;;;34.10;;
82034;SDS011;71599;49.892;18.914;2023-10-19T20:09:37;57.92;;;34.53;;
82034;SDS011;71599;49.892;18.914;2023-10-19T20:14:38;49.88;;;32.15;;
82034;SDS011;71599;49.892;18.914;2023-10-19T20:19:40;53.70;;;32.90;;
82034;SDS011;71599;49.892;18.914;2023-10-19T20:24:41;58.45;;;32.35;;
82034;SDS011;71599;49.892;18.914;2023-10-19T20:29:42;76.43;;;41.00;;
82034;SDS011;71599;49.892;18.914;2023-10-19T20:34:44;92.38;;;46.45;;
82034;SDS011;71599;49.892;18.914;2023-10-19T20:39:45;82.30;;;42.25;;
82034;SDS011;71599;49.892;18.914;2023-10-19T20:44:46;105.20;;;54.75;;
82034;SDS011;71599;49.892;18.914;2023-10-19T20:49:49;97.57;;;54.67;;
82034;SDS011;71599;49.892;18.914;2023-10-19T20:54:50;83.38;;;50.50;;
82034;SDS011;71599;49.892;18.914;2023-10-19T20:59:51;83.60;;;49.75;;
82034;SDS011;71599;49.892;18.914;2023-10-19T21:04:53;81.68;;;48.63;;
82034;SDS011;71599;49.892;18.914;2023-10-19T21:09:54;82.80;;;49.95;;
82034;SDS011;71599;49.892;18.914;2023-10-19T21:14:55;84.30;;;46.33;;
82034;SDS011;71599;49.892;18.914;2023-10-19T21:19:57;81.85;;;50.70;;
82034;SDS011;71599;49.892;18.914;2023-10-19T21:24:58;81.25;;;45.53;;
82034;SDS011;71599;49.892;18.914;2023-10-19T21:29:59;79.22;;;45.80;;
82034;SDS011;71599;49.892;18.914;2023-10-19T21:35:02;76.32;;;45.67;;
82034;SDS011;71599;49.892;18.914;2023-10-19T21:40:03;75.40;;;44.03;;
82034;SDS011;71599;49.892;18.914;2023-10-19T21:45:06;72.03;;;45.35;;
82034;SDS011;71599;49.892;18.914;2023-10-19T21:50:09;76.35;;;43.42;;
82034;SDS011;71599;49.892;18.914;2023-10-19T21:55:10;75.60;;;42.10;;
82034;SDS011;71599;49.892;18.914;2023-10-19T22:05:14;76.20;;;42.10;;
82034;SDS011;71599;49.892;18.914;2023-10-19T22:10:15;71.55;;;43.38;;
82034;SDS011;71599;49.892;18.914;2023-10-19T22:20:18;78.63;;;46.40;;
82034;SDS011;71599;49.892;18.914;2023-10-19T22:25:19;61.72;;;40.10;;
82034;SDS011;71599;49.892;18.914;2023-10-19T22:30:20;81.15;;;45.50;;
82034;SDS011;71599;49.892;18.914;2023-10-19T22:35:23;85.40;;;51.25;;
82034;SDS011;71599;49.892;18.914;2023-10-19T22:40:24;96.18;;;51.60;;
82034;SDS011;71599;49.892;18.914;2023-10-19T22:45:25;85.82;;;49.10;;
82034;SDS011;71599;49.892;18.914;2023-10-19T22:50:27;85.13;;;49.50;;
82034;SDS011;71599;49.892;18.914;2023-10-19T22:55:28;76.20;;;45.88;;
82034;SDS011;71599;49.892;18.914;2023-10-19T23:00:29;81.35;;;46.30;;
82034;SDS011;71599;49.892;18.914;2023-10-19T23:05:32;80.13;;;43.92;;
82034;SDS011;71599;49.892;18.914;2023-10-19T23:10:32;74.13;;;43.35;;
82034;SDS011;71599;49.892;18.914;2023-10-19T23:15:33;67.97;;;40.22;;
82034;SDS011;71599;49.892;18.914;2023-10-19T23:20:36;67.70;;;39.35;;
82034;SDS011;71599;49.892;18.914;2023-10-19T23:25:37;67.05;;;41.15;;
82034;SDS011;71599;49.892;18.914;2023-10-19T23:30:38;70.82;;;43.55;;
82034;SDS011;71599;49.892;18.914;2023-10-19T23:35:40;72.47;;;46.83;;
82034;SDS011;71599;49.892;18.914;2023-10-19T23:40:41;63.50;;;37.75;;
82034;SDS011;71599;49.892;18.914;2023-10-19T23:45:42;63.47;;;38.22;;
82034;SDS011;71599;49.892;18.914;2023-10-19T23:50:44;64.47;;;39.20;;
82034;SDS011;71599;49.892;18.914;2023-10-19T23:55:45;80.43;;;49.22;;
